createdAt,value
2022-11-14T00:01:21.067Z,101952.13
2022-11-14T00:04:06.318Z,101963.06
2022-11-14T00:06:51.820Z,101956.56
2022-11-14T00:09:38.778Z,101956.13
2022-11-14T00:12:24.297Z,101956.44
2022-11-14T00:15:10.876Z,101958.84
2022-11-14T00:17:56.333Z,101961.72
2022-11-14T00:20:41.583Z,101951.34
2022-11-14T00:23:26.908Z,101957.25
2022-11-14T00:26:12.282Z,101949.31
2022-11-14T00:28:57.940Z,101949.53
2022-11-14T00:31:43.152Z,101946.00
2022-11-14T00:34:28.454Z,101944.41
2022-11-14T00:37:13.731Z,101942.81
2022-11-14T00:39:59.195Z,101943.50
2022-11-14T00:42:44.990Z,101944.72
2022-11-14T00:45:30.248Z,101942.66
2022-11-14T00:48:16.212Z,101932.44
2022-11-14T00:51:01.745Z,101934.50
2022-11-14T00:53:47.229Z,101932.09
2022-11-14T00:56:32.617Z,101929.59
2022-11-14T00:59:17.629Z,101923.63
2022-11-14T01:02:03.211Z,101919.66
2022-11-14T01:04:48.297Z,101919.53
2022-11-14T01:07:33.799Z,101917.19
2022-11-14T01:10:19.923Z,101915.03
2022-11-14T01:13:05.387Z,101908.50
2022-11-14T01:15:50.997Z,101914.63
2022-11-14T01:18:37.267Z,101910.47
2022-11-14T01:21:22.360Z,101908.34
2022-11-14T01:24:07.522Z,101912.50
2022-11-14T01:26:56.292Z,101906.88
2022-11-14T01:29:42.024Z,101908.19
2022-11-14T01:32:27.823Z,101896.41
2022-11-14T01:35:13.548Z,101897.88
2022-11-14T01:37:58.954Z,101903.25
2022-11-14T01:40:45.801Z,101893.75
2022-11-14T01:43:36.605Z,101897.94
2022-11-14T01:46:33.880Z,101896.72
2022-11-14T01:49:27.113Z,101902.19
2022-11-14T01:52:26.858Z,101895.72
2022-11-14T01:55:12.246Z,101900.44
2022-11-14T01:57:58.276Z,101892.09
2022-11-14T02:00:44.689Z,101891.44
2022-11-14T02:03:30.423Z,101895.19
2022-11-14T02:06:19.854Z,101892.03
2022-11-14T02:09:07.280Z,101903.38
2022-11-14T02:11:55.272Z,101899.78
2022-11-14T02:14:42.321Z,101900.53
2022-11-14T02:17:30.683Z,101898.03
2022-11-14T02:20:28.745Z,101894.56
2022-11-14T02:23:14.001Z,101898.28
2022-11-14T02:25:59.794Z,101900.75
2022-11-14T02:28:45.350Z,101897.38
2022-11-14T02:31:30.955Z,101892.41
2022-11-14T02:34:20.079Z,101895.69
2022-11-14T02:37:05.624Z,101897.38
2022-11-14T02:39:50.898Z,101895.13
2022-11-14T02:42:36.412Z,101890.41
2022-11-14T02:45:21.808Z,101887.59
2022-11-14T02:48:07.449Z,101885.47
2022-11-14T02:50:52.708Z,101881.63
2022-11-14T02:53:38.205Z,101885.31
2022-11-14T02:56:23.943Z,101884.50
2022-11-14T02:59:09.188Z,101880.59
2022-11-14T03:01:54.563Z,101888.31
2022-11-14T03:04:39.955Z,101885.72
2022-11-14T03:07:25.059Z,101886.50
2022-11-14T03:10:11.320Z,101887.28
2022-11-14T03:12:57.748Z,101887.47
2022-11-14T03:15:43.113Z,101887.31
2022-11-14T03:18:28.774Z,101893.22
2022-11-14T03:21:17.615Z,101887.25
2022-11-14T03:24:03.305Z,101890.97
2022-11-14T03:26:48.960Z,101902.28
2022-11-14T03:29:34.551Z,101903.72
2022-11-14T03:32:20.102Z,101894.97
2022-11-14T03:35:05.950Z,101904.09
2022-11-14T03:37:55.222Z,101901.13
2022-11-14T03:40:41.796Z,101895.38
2022-11-14T03:43:34.300Z,101900.50
2022-11-14T03:46:19.444Z,101890.31
2022-11-14T03:49:05.200Z,101893.00
2022-11-14T03:51:51.057Z,101892.19
2022-11-14T03:54:36.285Z,101902.31
2022-11-14T03:57:21.743Z,101901.22
2022-11-14T04:00:08.196Z,101904.97
2022-11-14T04:02:55.051Z,101907.75
2022-11-14T04:05:45.305Z,101910.94
2022-11-14T04:08:31.050Z,101906.19
2022-11-14T04:11:16.485Z,101908.44
2022-11-14T04:14:02.082Z,101905.31
2022-11-14T04:16:47.371Z,101901.19
2022-11-14T04:19:32.434Z,101908.78
2022-11-14T04:22:17.944Z,101905.31
2022-11-14T04:25:03.606Z,101904.28
2022-11-14T04:27:48.783Z,101901.47
2022-11-14T04:30:34.961Z,101913.63
2022-11-14T04:33:20.731Z,101915.03
2022-11-14T04:36:06.595Z,101912.94
2022-11-14T04:38:51.994Z,101920.91
2022-11-14T04:41:37.389Z,101918.81
2022-11-14T04:44:22.567Z,101915.44
2022-11-14T04:47:08.267Z,101917.78
2022-11-14T04:49:53.529Z,101917.63
2022-11-14T04:52:38.640Z,101921.84
2022-11-14T04:55:23.997Z,101924.28
2022-11-14T04:58:09.420Z,101926.38
2022-11-14T05:00:57.145Z,101929.63
2022-11-14T05:03:42.801Z,101928.97
2022-11-14T05:06:28.054Z,101934.84
2022-11-14T05:09:13.477Z,101934.28
2022-11-14T05:11:58.772Z,101932.84
2022-11-14T05:14:44.095Z,101932.00
2022-11-14T05:17:29.527Z,101931.53
2022-11-14T05:20:15.070Z,101936.94
2022-11-14T05:23:00.360Z,101932.47
2022-11-14T05:25:45.407Z,101932.47
2022-11-14T05:28:31.601Z,101937.13
2022-11-14T05:31:18.149Z,101947.38
2022-11-14T05:34:03.488Z,101942.84
2022-11-14T05:36:48.728Z,101941.25
2022-11-14T05:39:33.973Z,101940.22
2022-11-14T05:42:19.429Z,101945.28
2022-11-14T05:45:05.376Z,101948.59
2022-11-14T05:47:54.045Z,101949.28
2022-11-14T05:50:39.169Z,101953.41
2022-11-14T05:53:24.462Z,101948.28
2022-11-14T05:56:12.098Z,101957.25
2022-11-14T05:58:57.476Z,101953.63
2022-11-14T06:01:42.828Z,101943.63
2022-11-14T06:04:28.106Z,101949.25
2022-11-14T06:07:18.826Z,101947.03
2022-11-14T06:10:05.742Z,101951.13
2022-11-14T06:12:51.056Z,101945.75
2022-11-14T06:15:36.482Z,101946.41
2022-11-14T06:18:21.752Z,101948.69
2022-11-14T06:21:15.916Z,101949.38
2022-11-14T06:24:01.149Z,101943.09
2022-11-14T06:26:46.541Z,101943.75
2022-11-14T06:29:35.520Z,101936.84
2022-11-14T06:32:21.166Z,101938.56
2022-11-14T06:35:08.540Z,101935.66
2022-11-14T06:37:54.241Z,101948.28
2022-11-14T06:40:39.677Z,101946.31
2022-11-14T06:43:25.148Z,101951.53
2022-11-14T06:46:12.783Z,101948.44
2022-11-14T06:48:58.320Z,101942.03
2022-11-14T06:51:43.675Z,101935.03
2022-11-14T06:54:28.953Z,101934.16
2022-11-14T06:57:14.293Z,101938.59
2022-11-14T06:59:59.579Z,101936.78
2022-11-14T07:02:49.015Z,101942.09
2022-11-14T07:05:34.403Z,101929.72
2022-11-14T07:08:21.192Z,101940.38
2022-11-14T07:11:12.468Z,101931.50
2022-11-14T07:14:02.965Z,101931.50
2022-11-14T07:16:48.716Z,101927.09
2022-11-14T07:19:34.113Z,101933.28
2022-11-14T07:22:19.807Z,101924.44
2022-11-14T07:25:05.706Z,101930.16
2022-11-14T07:27:51.238Z,101935.47
2022-11-14T07:30:37.099Z,101931.44
2022-11-14T07:33:22.734Z,101930.25
2022-11-14T07:36:08.661Z,101929.34
2022-11-14T07:38:54.522Z,101935.19
2022-11-14T07:41:41.014Z,101932.91
2022-11-14T07:44:26.712Z,101935.88
2022-11-14T07:47:12.175Z,101939.25
2022-11-14T07:49:57.793Z,101923.56
2022-11-14T07:52:43.295Z,101919.22
2022-11-14T07:55:28.838Z,101918.03
2022-11-14T07:58:14.615Z,101915.59
2022-11-14T08:01:04.753Z,101911.88
2022-11-14T08:03:50.195Z,101920.84
2022-11-14T08:07:08.507Z,101926.81
2022-11-14T08:09:54.308Z,101929.19
2022-11-14T08:12:40.567Z,101924.13
2022-11-14T08:15:26.265Z,101927.63
2022-11-14T08:18:11.536Z,101923.84
2022-11-14T08:20:57.735Z,101932.75
2022-11-14T08:23:45.345Z,101930.16
2022-11-14T08:26:34.271Z,101928.19
2022-11-14T08:29:20.351Z,101915.44
2022-11-14T08:32:05.947Z,101919.34
2022-11-14T08:34:51.260Z,101919.03
2022-11-14T08:37:36.632Z,101915.44
2022-11-14T08:40:21.957Z,101917.00
2022-11-14T08:43:07.237Z,101912.31
2022-11-14T08:45:52.330Z,101908.81
2022-11-14T08:48:37.641Z,101901.97
2022-11-14T08:51:23.020Z,101906.31
2022-11-14T08:54:08.178Z,101900.50
2022-11-14T08:56:53.898Z,101903.06
2022-11-14T08:59:39.108Z,101907.09
2022-11-14T09:02:24.469Z,101895.47
2022-11-14T09:05:10.129Z,101892.63
2022-11-14T09:07:55.557Z,101897.09
2022-11-14T09:10:41.087Z,101897.09
2022-11-14T09:13:27.638Z,101892.66
2022-11-14T09:16:12.979Z,101884.72
2022-11-14T09:18:58.359Z,101890.00
2022-11-14T09:21:43.874Z,101887.34
2022-11-14T09:24:29.372Z,101885.56
2022-11-14T09:27:14.834Z,101880.16
2022-11-14T09:30:00.046Z,101880.25
2022-11-14T09:32:45.537Z,101873.19
2022-11-14T09:35:32.000Z,101872.38
2022-11-14T09:38:17.703Z,101866.22
2022-11-14T09:41:09.430Z,101866.19
2022-11-14T09:44:19.129Z,101862.66
2022-11-14T09:47:16.649Z,101867.09
2022-11-14T09:50:12.063Z,101854.69
2022-11-14T09:53:09.674Z,101861.75
2022-11-14T09:55:54.900Z,101848.56
2022-11-14T09:58:41.930Z,101856.34
2022-11-14T10:01:49.532Z,101850.94
2022-11-14T10:05:10.867Z,101845.66
2022-11-14T10:08:02.556Z,101841.34
2022-11-14T10:10:53.326Z,101843.97
2022-11-14T10:13:56.778Z,101838.59
2022-11-14T10:17:09.312Z,101844.28
2022-11-14T10:20:27.120Z,101841.19
2022-11-14T10:23:47.927Z,101838.56
2022-11-14T10:26:46.969Z,101838.38
2022-11-14T10:29:39.004Z,101839.75
2022-11-14T10:33:01.146Z,101839.16
2022-11-14T10:36:05.538Z,101838.31
2022-11-14T10:39:01.134Z,101823.53
2022-11-14T10:41:57.774Z,101822.28
2022-11-14T10:45:13.198Z,101822.53
2022-11-14T10:48:03.607Z,101814.63
2022-11-14T10:50:57.801Z,101807.75
2022-11-14T10:53:43.428Z,101813.88
2022-11-14T10:56:28.889Z,101821.84
2022-11-14T10:59:14.454Z,101814.75
2022-11-14T11:01:59.915Z,101818.03
2022-11-14T11:04:46.372Z,101825.13
2022-11-14T11:07:50.198Z,101821.88
2022-11-14T11:11:00.424Z,101826.31
2022-11-14T11:13:55.688Z,101808.59
2022-11-14T11:16:41.023Z,101819.84
2022-11-14T11:19:27.840Z,101822.84
2022-11-14T11:22:35.265Z,101810.19
2022-11-14T11:25:26.831Z,101818.81
2022-11-14T11:28:21.625Z,101812.84
2022-11-14T11:31:11.495Z,101811.22
2022-11-14T11:34:03.311Z,101811.97
2022-11-14T11:37:03.067Z,101805.75
2022-11-14T11:39:55.981Z,101801.56
2022-11-14T11:43:36.702Z,101805.16
2022-11-14T11:46:03.325Z,101806.00
2022-11-14T11:48:56.393Z,101806.09
2022-11-14T11:51:45.705Z,101798.00
2022-11-14T11:54:44.547Z,101799.06
2022-11-14T11:58:08.634Z,101802.50
2022-11-14T12:00:57.094Z,101792.91
2022-11-14T12:03:49.108Z,101787.47
2022-11-14T12:06:45.133Z,101792.72
2022-11-14T12:10:08.919Z,101786.59
2022-11-14T12:12:44.064Z,101784.94
2022-11-14T12:16:06.565Z,101782.22
2022-11-14T12:19:23.205Z,101785.34
2022-11-14T12:22:33.194Z,101788.63
2022-11-14T12:25:55.779Z,101784.31
2022-11-14T12:28:59.523Z,101785.34
2022-11-14T12:31:46.797Z,101786.19
2022-11-14T12:34:37.994Z,101782.84
2022-11-14T12:37:36.314Z,101786.13
2022-11-14T12:40:30.179Z,101790.44
2022-11-14T12:43:36.762Z,101788.69
2022-11-14T12:46:22.478Z,101787.00
2022-11-14T12:49:45.459Z,101786.34
2022-11-14T12:52:46.375Z,101791.59
2022-11-14T12:55:31.578Z,101791.41
2022-11-14T12:58:22.920Z,101791.06
2022-11-14T13:01:25.622Z,101785.66
2022-11-14T13:04:32.345Z,101779.78
2022-11-14T13:07:34.152Z,101784.03
2022-11-14T13:10:28.047Z,101787.84
2022-11-14T13:13:36.148Z,101780.66
2022-11-14T13:16:49.149Z,101778.06
2022-11-14T13:19:53.195Z,101780.41
2022-11-14T13:22:46.696Z,101777.94
2022-11-14T13:25:32.652Z,101784.81
2022-11-14T13:28:48.226Z,101765.97
2022-11-14T13:31:36.458Z,101763.56
2022-11-14T13:34:43.760Z,101769.78
2022-11-14T13:37:42.884Z,101765.56
2022-11-14T13:40:40.087Z,101765.47
2022-11-14T13:43:49.695Z,101763.81
2022-11-14T13:47:23.155Z,101764.31
2022-11-14T13:50:14.369Z,101770.72
2022-11-14T13:52:59.986Z,101764.22
2022-11-14T13:56:04.769Z,101768.69
2022-11-14T13:59:05.480Z,101768.38
2022-11-14T14:02:02.494Z,101773.44
2022-11-14T14:04:47.827Z,101775.78
2022-11-14T14:07:57.488Z,101775.94
2022-11-14T14:10:51.912Z,101768.38
2022-11-14T14:13:37.223Z,101773.69
2022-11-14T14:16:44.590Z,101762.72
2022-11-14T14:19:56.375Z,101764.81
2022-11-14T14:22:55.222Z,101766.50
2022-11-14T14:26:00.198Z,101753.56
2022-11-14T14:28:53.498Z,101750.75
2022-11-14T14:31:41.651Z,101750.75
2022-11-14T14:34:31.907Z,101743.72
2022-11-14T14:37:19.596Z,101742.25
2022-11-14T14:40:08.797Z,101747.41
2022-11-14T14:42:57.360Z,101741.03
2022-11-14T14:45:51.641Z,101736.84
2022-11-14T14:48:42.512Z,101744.91
2022-11-14T14:51:35.796Z,101744.66
2022-11-14T14:54:26.404Z,101745.09
2022-11-14T14:57:21.297Z,101741.59
2022-11-14T15:00:29.793Z,101738.69
2022-11-14T15:03:15.468Z,101741.88
2022-11-14T15:06:03.272Z,101742.84
2022-11-14T15:08:49.630Z,101743.94
2022-11-14T15:11:39.845Z,101749.38
2022-11-14T15:14:28.697Z,101750.25
2022-11-14T15:17:15.251Z,101744.97
2022-11-14T15:20:00.612Z,101742.03
2022-11-14T15:23:02.245Z,101748.00
2022-11-14T15:25:47.929Z,101750.16
2022-11-14T15:28:34.271Z,101747.16
2022-11-14T15:31:22.141Z,101744.78
2022-11-14T15:34:24.609Z,101746.94
2022-11-14T15:37:19.134Z,101746.72
2022-11-14T15:40:22.195Z,101751.53
2022-11-14T15:43:40.123Z,101752.72
2022-11-14T15:46:35.714Z,101746.88
2022-11-14T15:49:24.825Z,101756.41
2022-11-14T15:52:21.179Z,101761.66
2022-11-14T15:55:21.692Z,101755.41
2022-11-14T15:58:29.023Z,101749.66
2022-11-14T16:01:24.111Z,101751.91
2022-11-14T16:04:18.744Z,101750.25
2022-11-14T16:07:04.312Z,101756.88
2022-11-14T16:09:50.585Z,101752.28
2022-11-14T16:12:36.191Z,101752.88
2022-11-14T16:15:22.039Z,101753.59
2022-11-14T16:18:07.666Z,101755.38
2022-11-14T16:20:58.750Z,101761.69
2022-11-14T16:23:44.242Z,101756.59
2022-11-14T16:26:29.840Z,101755.84
2022-11-14T16:29:15.636Z,101765.31
2022-11-14T16:32:01.322Z,101754.88
2022-11-14T16:34:47.119Z,101754.16
2022-11-14T16:37:32.279Z,101768.00
2022-11-14T16:40:21.615Z,101766.38
2022-11-14T16:43:06.788Z,101762.53
2022-11-14T16:45:52.208Z,101758.13
2022-11-14T16:48:37.797Z,101757.03
2022-11-14T16:51:50.532Z,101758.44
2022-11-14T16:54:28.733Z,101760.81
2022-11-14T16:57:14.291Z,101761.31
2022-11-14T16:59:59.500Z,101761.59
2022-11-14T17:02:45.768Z,101767.63
2022-11-14T17:05:31.204Z,101756.81
2022-11-14T17:08:17.027Z,101757.00
2022-11-14T17:11:09.665Z,101751.06
2022-11-14T17:13:56.697Z,101759.13
2022-11-14T17:16:41.713Z,101759.00
2022-11-14T17:19:27.104Z,101751.41
2022-11-14T17:22:16.910Z,101756.34
2022-11-14T17:25:04.623Z,101764.38
2022-11-14T17:27:50.060Z,101759.53
2022-11-14T17:30:40.054Z,101761.56
2022-11-14T17:33:25.600Z,101759.44
2022-11-14T17:36:11.679Z,101749.50
2022-11-14T17:38:58.603Z,101759.31
2022-11-14T17:41:44.525Z,101760.03
2022-11-14T17:44:30.086Z,101754.72
2022-11-14T17:47:15.673Z,101749.50
2022-11-14T17:50:01.494Z,101748.81
2022-11-14T17:52:46.973Z,101750.75
2022-11-14T17:55:32.451Z,101751.34
2022-11-14T17:58:17.984Z,101757.03
2022-11-14T18:01:19.241Z,101748.47
2022-11-14T18:04:06.293Z,101738.84
2022-11-14T18:06:52.360Z,101741.50
2022-11-14T18:09:38.459Z,101738.09
2022-11-14T18:12:24.016Z,101731.22
2022-11-14T18:15:09.662Z,101725.44
2022-11-14T18:17:54.971Z,101730.88
2022-11-14T18:20:40.491Z,101732.81
2022-11-14T18:23:25.769Z,101730.19
2022-11-14T18:26:14.060Z,101739.84
2022-11-14T18:29:04.505Z,101735.84
2022-11-14T18:31:49.814Z,101739.28
2022-11-14T18:34:38.597Z,101735.00
2022-11-14T18:37:23.799Z,101732.56
2022-11-14T18:40:16.246Z,101729.03
2022-11-14T18:43:02.225Z,101728.09
2022-11-14T18:45:47.863Z,101728.41
2022-11-14T18:48:33.381Z,101721.38
2022-11-14T18:51:23.379Z,101718.53
2022-11-14T18:54:16.443Z,101716.59
2022-11-14T18:57:01.914Z,101722.16
2022-11-14T18:59:47.155Z,101726.22
2022-11-14T19:02:32.757Z,101722.31
2022-11-14T19:05:18.019Z,101721.81
2022-11-14T19:08:05.413Z,101721.56
2022-11-14T19:10:51.024Z,101718.22
2022-11-14T19:13:36.804Z,101719.88
2022-11-14T19:16:22.402Z,101715.88
2022-11-14T19:19:08.410Z,101717.72
2022-11-14T19:21:53.761Z,101714.78
2022-11-14T19:24:43.001Z,101712.41
2022-11-14T19:27:29.026Z,101710.75
2022-11-14T19:30:15.537Z,101710.75
2022-11-14T19:33:02.751Z,101701.78
2022-11-14T19:35:48.287Z,101700.72
2022-11-14T19:38:34.011Z,101698.97
2022-11-14T19:41:21.977Z,101693.00
2022-11-14T19:44:07.730Z,101692.69
2022-11-14T19:46:52.829Z,101683.31
2022-11-14T19:49:38.684Z,101690.28
2022-11-14T19:52:24.316Z,101687.75
2022-11-14T19:55:09.819Z,101683.50
2022-11-14T19:57:55.400Z,101678.94
2022-11-14T20:00:40.702Z,101681.22
2022-11-14T20:03:25.854Z,101676.81
2022-11-14T20:06:16.951Z,101676.97
2022-11-14T20:09:07.853Z,101678.94
2022-11-14T20:11:53.033Z,101670.88
2022-11-14T20:14:38.568Z,101673.41
2022-11-14T20:17:24.469Z,101673.19
2022-11-14T20:20:10.017Z,101677.84
2022-11-14T20:22:55.827Z,101671.00
2022-11-14T20:25:41.121Z,101671.91
2022-11-14T20:28:26.653Z,101670.25
2022-11-14T20:31:17.145Z,101673.97
2022-11-14T20:34:02.704Z,101673.06
2022-11-14T20:39:53.655Z,101671.28
2022-11-14T20:42:38.717Z,101671.38
2022-11-14T20:45:24.625Z,101655.72
2022-11-14T20:48:09.750Z,101664.56
2022-11-14T20:51:08.912Z,101661.94
2022-11-14T20:53:55.540Z,101660.28
2022-11-14T20:56:40.807Z,101656.44
2022-11-14T20:59:26.110Z,101649.41
2022-11-14T21:02:15.118Z,101645.78
2022-11-14T21:05:01.413Z,101642.25
2022-11-14T21:07:47.162Z,101633.19
2022-11-14T21:10:48.774Z,101639.84
2022-11-14T21:13:55.585Z,101643.50
2022-11-14T21:16:41.338Z,101636.94
2022-11-14T21:19:27.136Z,101640.47
2022-11-14T21:22:13.530Z,101646.41
2022-11-14T21:24:59.133Z,101640.94
2022-11-14T21:27:44.901Z,101645.41
2022-11-14T21:30:34.721Z,101642.63
2022-11-14T21:33:20.142Z,101642.88
2022-11-14T21:36:30.058Z,101639.53
2022-11-14T21:39:16.910Z,101646.34
2022-11-14T21:42:03.077Z,101636.06
2022-11-14T21:44:48.442Z,101631.88
2022-11-14T21:47:34.450Z,101628.91
2022-11-14T21:50:19.737Z,101632.06
2022-11-14T21:53:15.960Z,101632.94
2022-11-14T21:56:12.146Z,101633.66
2022-11-14T21:59:14.416Z,101638.56
2022-11-14T22:02:18.504Z,101624.97
2022-11-14T22:05:04.115Z,101629.38
2022-11-14T22:07:49.315Z,101630.19
2022-11-14T22:10:34.677Z,101624.63
2022-11-14T22:13:20.328Z,101623.59
2022-11-14T22:16:06.738Z,101624.66
2022-11-14T22:18:52.612Z,101615.63
2022-11-14T22:21:38.253Z,101615.25
2022-11-14T22:24:23.918Z,101614.91
2022-11-14T22:27:09.181Z,101613.75
2022-11-14T22:29:54.361Z,101611.41
2022-11-14T22:32:39.905Z,101610.06
2022-11-14T22:35:24.895Z,101604.66
2022-11-14T22:38:10.132Z,101606.56
2022-11-14T22:40:57.199Z,101601.25
2022-11-14T22:43:42.942Z,101598.72
2022-11-14T22:46:29.252Z,101606.94
2022-11-14T22:49:19.714Z,101596.25
2022-11-14T22:52:06.561Z,101593.81
2022-11-14T22:54:51.798Z,101590.47
2022-11-14T22:57:37.378Z,101589.53
2022-11-14T23:00:22.997Z,101579.50
2022-11-14T23:03:08.660Z,101580.72
2022-11-14T23:05:53.824Z,101571.81
2022-11-14T23:08:39.819Z,101571.44
2022-11-14T23:11:28.091Z,101562.31
2022-11-14T23:14:14.401Z,101568.94
2022-11-14T23:16:59.707Z,101568.81
2022-11-14T23:19:45.155Z,101567.88
2022-11-14T23:22:30.597Z,101564.78
2022-11-14T23:25:16.305Z,101566.34
2022-11-14T23:28:01.840Z,101563.94
2022-11-14T23:30:47.190Z,101563.19
2022-11-14T23:33:33.746Z,101555.38
2022-11-14T23:36:19.679Z,101556.00
2022-11-14T23:39:04.889Z,101554.53
2022-11-14T23:41:50.240Z,101555.06
2022-11-14T23:44:35.836Z,101552.44
2022-11-14T23:47:21.525Z,101545.56
2022-11-14T23:50:06.876Z,101543.34
2022-11-14T23:52:52.426Z,101533.66
2022-11-14T23:55:38.503Z,101538.88
2022-11-14T23:58:24.779Z,101539.97
